Time;durP1;ratioP1;P1;durP2;ratioP2;P2;SDS_P1;SDS_P2;PMS_P1;PMS_P2;Temp;Humidity;BMP_temperature;BMP_pressure;BME280_temperature;BME280_humidity;BME280_pressure;Samples;Min_cycle;Max_cycle;Signal;HPM_P1;HPM_P2
2023/01/24 00:01:14;;;;;;;4.15;3.67;;;;;;;;;;5016532;28;20034;-68
2023/01/24 00:03:39;;;;;;;5.68;4.00;;;;;;;;;;5016728;28;20030;-68
2023/01/24 00:06:05;;;;;;;4.28;3.72;;;;;;;;;;5016737;28;20030;-68
2023/01/24 00:08:31;;;;;;;5.47;3.65;;;;;;;;;;5016616;28;20466;-68
2023/01/24 00:11:05;;;;;;;4.53;3.90;;;;;;;;;;5016312;28;20026;-68
2023/01/24 00:13:33;;;;;;;5.40;4.00;;;;;;;;;;5016333;28;20478;-69
2023/01/24 00:16:06;;;;;;;4.93;3.88;;;;;;;;;;5016492;28;20041;-68
2023/01/24 00:18:32;;;;;;;4.68;3.80;;;;;;;;;;5016156;28;20037;-68
2023/01/24 00:21:09;;;;;;;4.90;3.90;;;;;;;;;;5016404;28;20370;-68
2023/01/24 00:23:36;;;;;;;4.70;4.00;;;;;;;;;;5016141;28;20141;-68
2023/01/24 00:26:01;;;;;;;4.00;3.60;;;;;;;;;;5016043;28;20095;-68
2023/01/24 00:28:27;;;;;;;4.38;3.92;;;;;;;;;;5016035;28;20057;-68
2023/01/24 00:30:52;;;;;;;4.30;3.72;;;;;;;;;;5016135;28;20034;-68
2023/01/24 00:33:18;;;;;;;4.13;3.70;;;;;;;;;;5015912;28;20103;-68
2023/01/24 00:35:44;;;;;;;4.80;3.58;;;;;;;;;;5015830;28;20029;-68
2023/01/24 00:38:09;;;;;;;4.22;3.80;;;;;;;;;;5015987;28;20034;-68
2023/01/24 00:40:35;;;;;;;4.30;3.60;;;;;;;;;;5015775;28;20201;-68
2023/01/24 00:43:00;;;;;;;4.25;3.63;;;;;;;;;;5016013;28;20037;-68
2023/01/24 00:45:26;;;;;;;4.10;3.67;;;;;;;;;;5015628;28;20030;-68
2023/01/24 00:47:51;;;;;;;3.92;3.53;;;;;;;;;;5015619;28;20028;-68
2023/01/24 00:50:17;;;;;;;4.78;3.78;;;;;;;;;;5015359;28;20414;-68
2023/01/24 00:52:42;;;;;;;4.10;3.67;;;;;;;;;;5015961;28;20072;-68
2023/01/24 00:55:08;;;;;;;4.78;3.70;;;;;;;;;;5015586;28;20061;-69
2023/01/24 00:57:33;;;;;;;4.65;4.00;;;;;;;;;;5015516;28;20041;-68
2023/01/24 00:59:59;;;;;;;4.72;3.78;;;;;;;;;;5015342;28;20117;-68
2023/01/24 01:02:25;;;;;;;4.90;3.97;;;;;;;;;;5015700;28;20112;-68
2023/01/24 01:04:50;;;;;;;4.28;3.50;;;;;;;;;;5015350;28;20036;-68
2023/01/24 01:07:17;;;;;;;4.05;3.65;;;;;;;;;;5014704;28;20030;-68
2023/01/24 01:09:42;;;;;;;4.13;3.72;;;;;;;;;;5015502;28;20037;-68
2023/01/24 01:12:08;;;;;;;3.83;3.40;;;;;;;;;;5015521;28;20382;-69
2023/01/24 01:14:33;;;;;;;4.50;3.75;;;;;;;;;;5015140;28;20462;-68
2023/01/24 01:16:59;;;;;;;4.38;3.17;;;;;;;;;;5015238;28;20030;-68
2023/01/24 01:19:25;;;;;;;4.03;3.60;;;;;;;;;;5014944;28;20026;-68
2023/01/24 01:21:50;;;;;;;4.32;3.45;;;;;;;;;;5015046;28;20018;-68
2023/01/24 01:24:16;;;;;;;5.10;3.95;;;;;;;;;;5014934;28;20034;-68
2023/01/24 01:26:41;;;;;;;4.97;3.63;;;;;;;;;;5015234;28;20049;-69
2023/01/24 01:29:07;;;;;;;5.10;4.03;;;;;;;;;;5015151;28;20026;-68
2023/01/24 01:31:32;;;;;;;4.00;3.60;;;;;;;;;;5015122;28;20367;-69
2023/01/24 01:33:58;;;;;;;4.13;3.72;;;;;;;;;;5015080;28;20040;-68
2023/01/24 01:36:24;;;;;;;3.90;3.50;;;;;;;;;;5014808;28;20363;-68
2023/01/24 01:38:49;;;;;;;5.47;3.95;;;;;;;;;;5014536;28;20053;-68
2023/01/24 01:41:15;;;;;;;4.35;3.95;;;;;;;;;;5013438;28;20061;-68
2023/01/24 01:44:37;;;;;;;4.72;3.72;;;;;;;;;;5014660;28;20492;-69
2023/01/24 01:46:29;;;;;;;4.35;3.45;;;;;;;;;;5014445;28;20121;-69
2023/01/24 01:49:00;;;;;;;4.15;3.65;;;;;;;;;;5014508;28;20466;-69
2023/01/24 01:51:30;;;;;;;4.07;3.67;;;;;;;;;;5014385;28;20049;-69
2023/01/24 01:54:08;;;;;;;4.15;3.70;;;;;;;;;;5014470;28;20030;-68
2023/01/24 01:57:02;;;;;;;4.75;3.60;;;;;;;;;;5014368;28;20080;-68
2023/01/24 01:59:33;;;;;;;5.15;4.05;;;;;;;;;;5013825;28;20045;-69
2023/01/24 02:02:01;;;;;;;4.32;3.20;;;;;;;;;;5014573;28;20022;-69
2023/01/24 02:04:39;;;;;;;4.20;3.47;;;;;;;;;;5014470;28;20022;-69
2023/01/24 02:07:20;;;;;;;4.90;3.70;;;;;;;;;;5012922;28;20569;-68
2023/01/24 02:09:47;;;;;;;;;;;;;;;;;;5014667;28;20556;-68
2023/01/24 02:12:25;;;;;;;4.30;3.47;;;;;;;;;;5014014;28;19913;-68
2023/01/24 02:17:40;;;;;;;5.22;3.60;;;;;;;;;;5013905;28;20036;-68
2023/01/24 02:20:25;;;;;;;3.53;3.22;;;;;;;;;;5013367;28;20122;-69
2023/01/24 02:22:57;;;;;;;4.32;3.65;;;;;;;;;;5014152;28;20389;-68
2023/01/24 02:25:38;;;;;;;5.65;3.40;;;;;;;;;;5014143;28;20374;-69
2023/01/24 02:28:06;;;;;;;4.35;3.28;;;;;;;;;;5013816;28;20486;-69
2023/01/24 02:30:32;;;;;;;3.80;3.40;;;;;;;;;;5013834;28;20022;-69
2023/01/24 02:32:58;;;;;;;5.18;3.58;;;;;;;;;;5013708;28;20490;-68
2023/01/24 02:35:30;;;;;;;4.50;3.63;;;;;;;;;;5013675;28;20069;-69
2023/01/24 02:38:03;;;;;;;5.10;3.78;;;;;;;;;;5013539;28;20474;-68
2023/01/24 02:40:30;;;;;;;4.35;3.60;;;;;;;;;;5012312;28;20478;-69
2023/01/24 02:42:58;;;;;;;4.15;3.40;;;;;;;;;;5012043;28;20505;-69
2023/01/24 02:45:27;;;;;;;4.80;3.65;;;;;;;;;;5013459;28;20509;-69
2023/01/24 02:47:55;;;;;;;4.30;3.50;;;;;;;;;;5013423;28;20033;-68
2023/01/24 02:50:24;;;;;;;3.97;3.58;;;;;;;;;;5013459;28;20119;-68
2023/01/24 02:58:05;;;;;;;4.97;3.97;;;;;;;;;;5013650;28;20164;-68
2023/01/24 02:58:20;;;;;;;4.20;3.80;;;;;;;;;;5013229;28;20034;-68
2023/01/24 03:00:46;;;;;;;4.63;3.70;;;;;;;;;;5013190;28;20105;-68
2023/01/24 03:03:12;;;;;;;3.92;3.55;;;;;;;;;;5013258;28;20033;-68
2023/01/24 03:05:46;;;;;;;3.85;3.35;;;;;;;;;;5013658;28;20030;-68
2023/01/24 03:08:12;;;;;;;3.70;3.40;;;;;;;;;;5013192;28;20030;-68
2023/01/24 03:10:38;;;;;;;4.10;3.50;;;;;;;;;;5013312;28;20028;-68
2023/01/24 03:34:56;;;;;;;4.03;3.63;;;;;;;;;;5013055;28;20128;-68
2023/01/24 03:40:12;;;;;;;4.32;3.22;;;;;;;;;;5012696;28;20048;-68
2023/01/24 03:42:46;;;;;;;4.38;3.60;;;;;;;;;;5012780;28;20057;-68
2023/01/24 03:45:15;;;;;;;3.90;3.50;;;;;;;;;;5012633;28;20033;-68
2023/01/24 03:47:45;;;;;;;3.90;3.47;;;;;;;;;;5012657;28;20141;-68
2023/01/24 03:52:55;;;;;;;4.18;3.78;;;;;;;;;;5012901;28;20033;-68
2023/01/24 03:55:21;;;;;;;4.15;3.58;;;;;;;;;;5012765;28;20018;-68
2023/01/24 03:57:47;;;;;;;3.95;3.38;;;;;;;;;;5012507;28;20037;-68
2023/01/24 04:00:13;;;;;;;4.57;3.80;;;;;;;;;;5012651;28;20389;-68
2023/01/24 04:02:39;;;;;;;4.18;3.20;;;;;;;;;;5012577;28;20116;-69
2023/01/24 04:05:13;;;;;;;3.83;3.40;;;;;;;;;;5012470;28;20105;-68
2023/01/24 04:07:39;;;;;;;3.88;3.47;;;;;;;;;;5012576;28;20068;-68
2023/01/24 04:10:05;;;;;;;4.38;3.38;;;;;;;;;;5012391;28;20034;-68
2023/01/24 04:12:30;;;;;;;4.05;3.35;;;;;;;;;;5012333;28;20030;-68
2023/01/24 04:14:56;;;;;;;3.63;3.33;;;;;;;;;;5012378;28;20121;-68
2023/01/24 04:17:21;;;;;;;4.45;3.60;;;;;;;;;;5012603;28;20121;-68
2023/01/24 04:19:47;;;;;;;5.25;3.63;;;;;;;;;;5012515;28;20409;-68
2023/01/24 04:22:15;;;;;;;4.38;3.42;;;;;;;;;;5012638;28;20386;-68
2023/01/24 04:24:41;;;;;;;4.50;3.50;;;;;;;;;;5012355;28;20478;-68
2023/01/24 04:27:06;;;;;;;3.72;3.42;;;;;;;;;;5012216;28;20049;-68
2023/01/24 04:29:32;;;;;;;3.50;3.20;;;;;;;;;;5012281;28;20069;-68
2023/01/24 04:31:57;;;;;;;3.53;3.22;;;;;;;;;;5012219;28;20025;-68
2023/01/24 04:34:23;;;;;;;3.83;3.28;;;;;;;;;;5012174;28;20030;-68
2023/01/24 04:36:48;;;;;;;3.97;3.38;;;;;;;;;;5012145;28;20114;-68
2023/01/24 04:39:14;;;;;;;4.22;3.45;;;;;;;;;;5012375;28;20045;-68
2023/01/24 04:41:40;;;;;;;3.75;3.40;;;;;;;;;;5012783;28;20536;-68
2023/01/24 04:44:05;;;;;;;4.32;3.42;;;;;;;;;;5016000;28;20026;-68
2023/01/24 04:46:31;;;;;;;4.30;3.85;;;;;;;;;;5014390;28;20053;-68
2023/01/24 04:48:56;;;;;;;3.63;3.30;;;;;;;;;;5015699;28;20101;-68
2023/01/24 04:51:22;;;;;;;4.00;3.60;;;;;;;;;;5015529;28;20049;-68
2023/01/24 04:53:48;;;;;;;3.88;3.45;;;;;;;;;;5015568;28;20045;-69
2023/01/24 04:56:13;;;;;;;4.10;3.53;;;;;;;;;;5015562;28;20022;-68
2023/01/24 04:58:39;;;;;;;3.90;3.50;;;;;;;;;;5015361;28;20034;-68
2023/01/24 05:01:05;;;;;;;3.65;3.33;;;;;;;;;;5015432;28;20033;-69
2023/01/24 05:03:31;;;;;;;4.03;3.35;;;;;;;;;;5015409;28;20034;-68
2023/01/24 05:05:56;;;;;;;3.88;3.47;;;;;;;;;;5015325;28;20030;-68
2023/01/24 05:08:22;;;;;;;4.65;3.40;;;;;;;;;;5015296;28;20533;-68
2023/01/24 05:10:48;;;;;;;3.50;3.20;;;;;;;;;;5015228;28;20030;-68
2023/01/24 05:13:14;;;;;;;3.90;3.50;;;;;;;;;;5015204;28;20105;-68
2023/01/24 05:15:49;;;;;;;4.40;3.47;;;;;;;;;;5015405;28;20025;-68
2023/01/24 05:18:14;;;;;;;3.78;3.20;;;;;;;;;;5015131;28;20552;-69
2023/01/24 05:20:40;;;;;;;3.92;3.53;;;;;;;;;;5015036;28;20121;-69
2023/01/24 05:23:05;;;;;;;3.85;3.08;;;;;;;;;;5014996;28;20386;-68
2023/01/24 05:25:31;;;;;;;3.63;3.20;;;;;;;;;;5015206;28;20026;-68
2023/01/24 05:27:56;;;;;;;3.33;3.03;;;;;;;;;;5014973;28;20095;-68
2023/01/24 05:30:22;;;;;;;4.20;3.45;;;;;;;;;;5014898;28;20073;-68
2023/01/24 05:32:47;;;;;;;4.07;3.55;;;;;;;;;;5014785;28;20593;-68
2023/01/24 05:35:13;;;;;;;4.53;3.78;;;;;;;;;;5014777;28;20064;-68
2023/01/24 05:37:39;;;;;;;3.60;3.08;;;;;;;;;;5014695;28;20137;-68
2023/01/24 05:40:06;;;;;;;3.40;3.10;;;;;;;;;;5014898;28;20044;-68
2023/01/24 05:42:32;;;;;;;4.18;3.50;;;;;;;;;;5014550;28;20044;-68
2023/01/24 05:44:57;;;;;;;3.50;3.20;;;;;;;;;;5014551;28;20111;-68
2023/01/24 05:47:23;;;;;;;3.78;3.20;;;;;;;;;;5014512;28;20076;-68
2023/01/24 05:49:49;;;;;;;4.03;3.40;;;;;;;;;;5014727;28;20106;-68
2023/01/24 05:52:21;;;;;;;4.15;3.35;;;;;;;;;;5014186;28;20109;-68
2023/01/24 05:54:47;;;;;;;3.85;3.45;;;;;;;;;;5014475;28;20060;-68
2023/01/24 05:57:14;;;;;;;3.63;3.17;;;;;;;;;;5014619;28;20030;-68
2023/01/24 05:59:39;;;;;;;3.30;3.00;;;;;;;;;;5014140;28;20038;-68
2023/01/24 06:02:05;;;;;;;4.13;3.47;;;;;;;;;;5014248;28;20033;-69
2023/01/24 06:04:30;;;;;;;3.50;3.08;;;;;;;;;;5014010;28;20034;-69
2023/01/24 06:06:56;;;;;;;3.58;3.05;;;;;;;;;;5014417;28;20080;-68
2023/01/24 06:09:21;;;;;;;4.70;3.30;;;;;;;;;;5014070;28;20374;-68
2023/01/24 06:11:47;;;;;;;3.55;3.10;;;;;;;;;;5014110;28;20058;-68
2023/01/24 06:14:13;;;;;;;3.90;3.30;;;;;;;;;;5013861;28;20029;-68
2023/01/24 06:16:39;;;;;;;3.70;3.30;;;;;;;;;;5012926;28;20026;-68
2023/01/24 06:19:05;;;;;;;3.78;3.38;;;;;;;;;;5014033;28;20030;-68
2023/01/24 06:22:03;;;;;;;4.03;3.30;;;;;;;;;;5013798;28;20083;-68
2023/01/24 06:24:29;;;;;;;3.47;3.17;;;;;;;;;;5013809;28;20057;-68
2023/01/24 06:26:55;;;;;;;3.80;2.97;;;;;;;;;;5012764;28;20033;-68
2023/01/24 06:29:22;;;;;;;3.78;3.20;;;;;;;;;;5012103;28;20120;-70
2023/01/24 06:32:10;;;;;;;4.20;3.42;;;;;;;;;;5008085;28;20856;-68
2023/01/24 06:34:55;;;;;;;3.25;2.95;;;;;;;;;;5008288;28;20026;-68
2023/01/24 06:37:30;;;;;;;3.22;2.92;;;;;;;;;;5008336;28;20045;-68
2023/01/24 06:39:56;;;;;;;4.10;3.60;;;;;;;;;;5005796;28;20030;-68
2023/01/24 06:42:22;;;;;;;3.28;2.97;;;;;;;;;;5010408;28;20024;-68
2023/01/24 06:44:49;;;;;;;4.45;3.25;;;;;;;;;;5013063;28;20029;-68
2023/01/24 06:47:15;;;;;;;3.72;3.30;;;;;;;;;;5012048;28;20049;-68
2023/01/24 06:49:41;;;;;;;4.95;3.83;;;;;;;;;;5013229;28;20117;-68
2023/01/24 06:52:07;;;;;;;3.72;3.30;;;;;;;;;;5013224;28;20493;-68
2023/01/24 06:54:34;;;;;;;3.22;2.92;;;;;;;;;;5012304;28;20030;-68
2023/01/24 06:56:59;;;;;;;4.22;3.28;;;;;;;;;;5012535;28;20049;-68
2023/01/24 06:59:28;;;;;;;3.35;3.05;;;;;;;;;;5012079;28;20509;-68
2023/01/24 07:01:55;;;;;;;4.45;3.38;;;;;;;;;;5013310;28;20042;-68
2023/01/24 07:04:21;;;;;;;3.47;3.00;;;;;;;;;;5013087;28;20114;-68
2023/01/24 07:06:52;;;;;;;3.72;3.05;;;;;;;;;;5013213;28;20355;-69
2023/01/24 07:09:18;;;;;;;3.50;3.20;;;;;;;;;;5013230;28;20032;-69
2023/01/24 07:11:44;;;;;;;4.07;3.30;;;;;;;;;;5013100;28;20036;-69
2023/01/24 07:14:09;;;;;;;3.45;3.13;;;;;;;;;;5013052;28;20026;-70
2023/01/24 07:16:35;;;;;;;3.25;2.95;;;;;;;;;;5013056;28;20061;-69
2023/01/24 07:19:01;;;;;;;3.90;3.03;;;;;;;;;;5011728;28;20029;-69
2023/01/24 07:21:29;;;;;;;3.53;3.08;;;;;;;;;;5013118;28;20084;-68
2023/01/24 07:23:57;;;;;;;3.85;3.08;;;;;;;;;;5011896;28;20077;-68
2023/01/24 07:26:23;;;;;;;3.63;3.17;;;;;;;;;;5011460;28;20079;-68
2023/01/24 07:28:49;;;;;;;4.43;3.13;;;;;;;;;;5012944;28;20109;-68
2023/01/24 07:31:15;;;;;;;4.30;3.13;;;;;;;;;;5012937;28;20486;-68
2023/01/24 07:33:40;;;;;;;3.67;3.05;;;;;;;;;;5015082;28;20509;-68
2023/01/24 07:36:14;;;;;;;3.85;3.10;;;;;;;;;;5018087;28;20057;-68
2023/01/24 07:38:39;;;;;;;5.45;4.10;;;;;;;;;;5013549;28;20121;-69
2023/01/24 07:41:09;;;;;;;6.38;4.60;;;;;;;;;;5012594;28;20097;-70
2023/01/24 07:43:35;;;;;;;9.40;5.93;;;;;;;;;;5012729;28;20018;-69
2023/01/24 07:46:00;;;;;;;8.73;6.47;;;;;;;;;;5011150;28;20504;-67
2023/01/24 07:48:26;;;;;;;8.13;6.55;;;;;;;;;;5012634;28;20022;-66
2023/01/24 07:50:52;;;;;;;6.68;5.57;;;;;;;;;;5005478;28;20617;-70
2023/01/24 07:53:17;;;;;;;7.82;5.70;;;;;;;;;;5010701;28;20040;-69
2023/01/24 07:55:43;;;;;;;8.77;5.72;;;;;;;;;;5011166;28;20121;-69
2023/01/24 07:58:08;;;;;;;7.18;5.32;;;;;;;;;;5012342;28;20112;-69
2023/01/24 08:00:34;;;;;;;6.45;5.70;;;;;;;;;;5010974;28;20026;-69
2023/01/24 08:03:00;;;;;;;5.82;5.22;;;;;;;;;;5012534;28;20636;-69
2023/01/24 08:05:25;;;;;;;6.93;5.25;;;;;;;;;;5010984;28;20033;-69
2023/01/24 08:07:53;;;;;;;5.20;4.70;;;;;;;;;;5011087;28;20030;-69
2023/01/24 08:10:21;;;;;;;5.20;4.47;;;;;;;;;;5012390;28;20034;-69
2023/01/24 08:12:49;;;;;;;7.25;4.53;;;;;;;;;;5010952;28;20041;-69
2023/01/24 08:15:14;;;;;;;4.40;3.92;;;;;;;;;;5012225;28;20022;-69
2023/01/24 08:17:40;;;;;;;5.07;4.07;;;;;;;;;;5013324;28;20029;-69
2023/01/24 08:20:07;;;;;;;5.22;4.30;;;;;;;;;;5016263;28;20026;-69
2023/01/24 08:22:33;;;;;;;6.63;4.53;;;;;;;;;;5015042;28;20166;-69
2023/01/24 08:24:58;;;;;;;4.90;3.55;;;;;;;;;;5016205;28;20026;-68
2023/01/24 08:27:24;;;;;;;5.00;4.20;;;;;;;;;;5015486;28;20486;-68
2023/01/24 08:29:49;;;;;;;4.43;3.78;;;;;;;;;;5015857;28;20026;-68
2023/01/24 08:32:15;;;;;;;6.80;3.85;;;;;;;;;;5013687;28;20377;-68
2023/01/24 08:34:41;;;;;;;4.03;3.40;;;;;;;;;;5028940;28;20443;-68
2023/01/24 08:37:06;;;;;;;4.95;4.00;;;;;;;;;;5015000;28;20100;-68
2023/01/24 08:39:32;;;;;;;4.15;3.72;;;;;;;;;;5014930;28;20037;-69
2023/01/24 08:41:57;;;;;;;4.50;3.55;;;;;;;;;;5015041;28;20485;-69
2023/01/24 08:44:23;;;;;;;4.45;3.80;;;;;;;;;;5014109;28;20022;-69
2023/01/24 08:46:48;;;;;;;4.70;3.33;;;;;;;;;;5014065;28;20022;-69
2023/01/24 08:49:14;;;;;;;3.95;3.35;;;;;;;;;;5015745;28;20057;-68
2023/01/24 08:51:40;;;;;;;4.65;3.42;;;;;;;;;;5015415;28;20371;-69
2023/01/24 08:54:06;;;;;;;4.10;3.35;;;;;;;;;;5015408;28;20084;-70
2023/01/24 08:56:31;;;;;;;5.15;3.50;;;;;;;;;;5015489;28;20026;-69
2023/01/24 08:59:00;;;;;;;3.67;3.28;;;;;;;;;;5015288;28;20433;-70
2023/01/24 09:01:26;;;;;;;3.40;2.92;;;;;;;;;;5013443;28;20044;-70
2023/01/24 09:03:54;;;;;;;5.45;3.20;;;;;;;;;;5012358;28;20389;-69
2023/01/24 09:06:20;;;;;;;3.45;2.67;;;;;;;;;;5014815;28;20026;-69
2023/01/24 09:08:46;;;;;;;3.28;2.58;;;;;;;;;;5013472;28;20041;-70
2023/01/24 09:11:12;;;;;;;3.53;3.00;;;;;;;;;;5013518;28;20022;-69
2023/01/24 09:13:38;;;;;;;5.70;2.97;;;;;;;;;;5012820;28;20032;-70
2023/01/24 09:16:04;;;;;;;3.08;2.70;;;;;;;;;;5013241;28;20030;-69
2023/01/24 09:18:30;;;;;;;3.38;3.00;;;;;;;;;;5013339;28;20058;-70
2023/01/24 09:20:59;;;;;;;3.90;2.90;;;;;;;;;;5013704;28;20053;-70
2023/01/24 09:23:26;;;;;;;4.40;2.80;;;;;;;;;;5013478;28;20449;-69
2023/01/24 09:25:52;;;;;;;5.43;2.80;;;;;;;;;;5013413;28;20058;-69
2023/01/24 09:28:20;;;;;;;4.50;2.80;;;;;;;;;;5013148;28;20397;-69
2023/01/24 09:30:47;;;;;;;3.67;2.90;;;;;;;;;;5013154;28;20083;-68
2023/01/24 09:33:13;;;;;;;4.95;3.30;;;;;;;;;;5013065;28;20037;-69
2023/01/24 09:35:38;;;;;;;6.28;3.55;;;;;;;;;;5010120;28;20046;-69
2023/01/24 09:38:05;;;;;;;5.75;3.67;;;;;;;;;;5010140;28;20160;-69
2023/01/24 09:40:57;;;;;;;11.88;6.13;;;;;;;;;;5012695;28;20034;-70
2023/01/24 09:43:31;;;;;;;6.47;4.85;;;;;;;;;;5013148;28;20393;-70
2023/01/24 09:46:24;;;;;;;6.65;4.68;;;;;;;;;;5012832;28;20548;-69
2023/01/24 09:49:00;;;;;;;6.40;5.03;;;;;;;;;;5013213;28;20037;-69
2023/01/24 09:51:29;;;;;;;8.02;6.05;;;;;;;;;;5012461;28;20685;-69
2023/01/24 09:54:05;;;;;;;8.13;6.70;;;;;;;;;;5012789;28;20188;-70
2023/01/24 09:56:36;;;;;;;9.02;6.32;;;;;;;;;;5012450;28;20030;-71
2023/01/24 09:59:14;;;;;;;9.80;6.50;;;;;;;;;;5011121;28;20025;-69
2023/01/24 10:01:48;;;;;;;9.43;6.95;;;;;;;;;;5011192;28;20033;-70
2023/01/24 10:04:18;;;;;;;11.00;7.55;;;;;;;;;;5012703;28;20046;-69
2023/01/24 10:07:18;;;;;;;11.40;7.10;;;;;;;;;;5012369;28;20022;-70
2023/01/24 10:09:53;;;;;;;;;;;;;;;;;;4999553;28;20337;-70
2023/01/24 10:12:28;;;;;;;11.52;7.30;;;;;;;;;;5012344;28;19925;-69
2023/01/24 10:15:18;;;;;;;12.38;8.13;;;;;;;;;;5010714;28;20069;-69
2023/01/24 10:18:07;;;;;;;12.55;7.70;;;;;;;;;;5007853;28;20057;-70
2023/01/24 10:21:10;;;;;;;12.68;8.32;;;;;;;;;;5012489;28;20046;-70
2023/01/24 10:23:49;;;;;;;18.50;10.43;;;;;;;;;;5012233;28;20113;-70
2023/01/24 10:26:23;;;;;;;17.20;12.32;;;;;;;;;;5012233;28;20030;-69
2023/01/24 10:28:55;;;;;;;13.20;9.60;;;;;;;;;;5012180;28;20032;-70
2023/01/24 10:31:20;;;;;;;14.27;10.52;;;;;;;;;;5011864;28;20030;-69
2023/01/24 10:33:49;;;;;;;12.90;9.88;;;;;;;;;;5012055;28;20037;-69
2023/01/24 10:36:15;;;;;;;12.23;9.18;;;;;;;;;;5010692;28;20026;-69
2023/01/24 10:38:43;;;;;;;11.25;9.23;;;;;;;;;;5011673;28;20500;-69
2023/01/24 10:41:23;;;;;;;13.68;10.43;;;;;;;;;;5010223;28;20535;-69
2023/01/24 10:44:28;;;;;;;12.18;10.88;;;;;;;;;;5010685;28;20048;-69
2023/01/24 10:47:18;;;;;;;14.98;12.63;;;;;;;;;;5004519;28;20072;-69
2023/01/24 10:49:53;;;;;;;12.77;9.20;;;;;;;;;;5011794;28;20049;-69
2023/01/24 10:52:21;;;;;;;11.73;9.13;;;;;;;;;;5011391;28;20046;-69
2023/01/24 10:54:55;;;;;;;12.98;10.68;;;;;;;;;;5011962;28;20053;-70
2023/01/24 10:57:41;;;;;;;16.02;13.05;;;;;;;;;;5011800;28;20058;-69
2023/01/24 11:00:16;;;;;;;9.73;8.73;;;;;;;;;;5010335;28;20164;-70
2023/01/24 11:02:45;;;;;;;12.85;8.65;;;;;;;;;;5011529;28;20036;-70
2023/01/24 11:05:12;;;;;;;9.95;8.63;;;;;;;;;;5010114;28;20088;-70
2023/01/24 11:07:46;;;;;;;10.35;7.82;;;;;;;;;;5011301;28;20564;-70
2023/01/24 11:10:24;;;;;;;10.52;8.13;;;;;;;;;;5011449;28;20029;-70
2023/01/24 11:12:58;;;;;;;7.53;6.20;;;;;;;;;;5011420;28;20040;-69
2023/01/24 11:15:30;;;;;;;8.48;6.43;;;;;;;;;;5010112;28;20049;-69
2023/01/24 11:17:59;;;;;;;6.93;5.53;;;;;;;;;;5011301;28;20018;-68
2023/01/24 11:20:33;;;;;;;8.20;5.18;;;;;;;;;;5011596;28;20058;-69
2023/01/24 11:23:27;;;;;;;6.40;5.18;;;;;;;;;;5010818;28;20038;-68
2023/01/24 11:25:57;;;;;;;7.35;5.38;;;;;;;;;;5009806;28;20121;-69
2023/01/24 11:28:30;;;;;;;7.70;6.13;;;;;;;;;;5011292;28;20084;-69
2023/01/24 11:31:06;;;;;;;7.38;5.93;;;;;;;;;;5011246;28;20061;-69
2023/01/24 11:34:22;;;;;;;9.20;6.38;;;;;;;;;;5011203;28;20022;-69
2023/01/24 11:37:08;;;;;;;7.45;5.40;;;;;;;;;;5023185;28;20042;-69
2023/01/24 11:39:42;;;;;;;7.93;6.43;;;;;;;;;;5009367;28;20037;-71
2023/01/24 11:42:23;;;;;;;11.10;8.73;;;;;;;;;;5011124;28;20029;-70
2023/01/24 11:45:10;;;;;;;10.95;8.18;;;;;;;;;;5010977;28;20033;-69
2023/01/24 11:48:05;;;;;;;14.82;9.43;;;;;;;;;;5010994;28;20396;-69
2023/01/24 11:50:34;;;;;;;14.75;12.20;;;;;;;;;;5010567;28;20405;-71
2023/01/24 11:53:31;;;;;;;14.63;11.77;;;;;;;;;;5017743;28;20446;-69
2023/01/24 11:56:21;;;;;;;17.08;11.98;;;;;;;;;;5017564;28;20333;-70
2023/01/24 11:59:08;;;;;;;19.08;13.23;;;;;;;;;;5017605;28;20532;-69
2023/01/24 12:01:44;;;;;;;19.08;12.27;;;;;;;;;;5017643;28;20061;-69
2023/01/24 12:04:32;;;;;;;16.33;11.40;;;;;;;;;;5017437;28;20417;-69
2023/01/24 12:07:00;;;;;;;15.18;10.30;;;;;;;;;;5017228;28;20032;-69
2023/01/24 12:09:32;;;;;;;18.67;11.13;;;;;;;;;;5017231;28;20040;-69
2023/01/24 12:12:27;;;;;;;19.70;11.18;;;;;;;;;;5015733;28;20433;-69
2023/01/24 12:15:21;;;;;;;20.33;10.35;;;;;;;;;;4991508;28;20561;-69
2023/01/24 12:18:10;;;;;;;21.02;11.45;;;;;;;;;;5012000;28;20108;-69
2023/01/24 12:20:41;;;;;;;18.20;11.30;;;;;;;;;;5017187;28;20041;-70
2023/01/24 12:23:28;;;;;;;24.35;12.75;;;;;;;;;;5017204;28;20045;-70
2023/01/24 12:26:00;;;;;;;20.92;11.40;;;;;;;;;;5017276;28;20746;-68
2023/01/24 12:28:34;;;;;;;21.65;12.45;;;;;;;;;;5015605;28;20041;-69
2023/01/24 12:31:02;;;;;;;22.10;11.55;;;;;;;;;;5015112;28;20022;-69
2023/01/24 12:33:33;;;;;;;23.02;11.07;;;;;;;;;;5015813;28;20067;-69
2023/01/24 12:36:05;;;;;;;22.85;11.93;;;;;;;;;;5014397;28;20088;-69
2023/01/24 12:38:38;;;;;;;21.25;12.18;;;;;;;;;;5015644;28;20054;-69
2023/01/24 12:41:27;;;;;;;21.88;12.15;;;;;;;;;;5017179;28;20037;-69
2023/01/24 12:44:18;;;;;;;21.35;14.15;;;;;;;;;;5017092;28;20058;-69
2023/01/24 12:46:53;;;;;;;21.02;13.60;;;;;;;;;;5016997;28;20031;-69
2023/01/24 12:50:02;;;;;;;24.20;13.50;;;;;;;;;;5016870;28;20061;-69
2023/01/24 12:52:33;;;;;;;24.23;12.02;;;;;;;;;;5016732;28;20102;-71
2023/01/24 12:55:20;;;;;;;25.63;12.23;;;;;;;;;;5016876;28;20036;-69
2023/01/24 12:57:50;;;;;;;21.38;12.02;;;;;;;;;;5016491;28;20026;-69
2023/01/24 13:00:24;;;;;;;22.45;13.00;;;;;;;;;;5015684;28;20398;-69
2023/01/24 13:03:23;;;;;;;23.45;12.82;;;;;;;;;;5014521;28;20088;-70
2023/01/24 13:05:58;;;;;;;21.85;14.32;;;;;;;;;;4992660;28;20041;-68
2023/01/24 13:08:38;;;;;;;21.30;13.45;;;;;;;;;;5013768;28;20025;-69
2023/01/24 13:11:09;;;;;;;24.33;13.30;;;;;;;;;;5012453;28;20052;-69
2023/01/24 13:14:00;;;;;;;21.40;12.35;;;;;;;;;;5013662;28;20030;-70
2023/01/24 13:16:59;;;;;;;19.83;11.57;;;;;;;;;;5013620;28;20034;-69
2023/01/24 13:19:30;;;;;;;21.17;11.20;;;;;;;;;;5013329;28;20029;-69
2023/01/24 13:22:14;;;;;;;21.77;11.95;;;;;;;;;;5013592;28;20030;-69
2023/01/24 13:24:59;;;;;;;20.48;11.70;;;;;;;;;;5012101;28;20513;-69
2023/01/24 13:27:45;;;;;;;22.83;11.77;;;;;;;;;;5013103;28;20025;-69
2023/01/24 13:30:11;;;;;;;22.83;11.48;;;;;;;;;;5013305;28;20121;-69
2023/01/24 13:32:39;;;;;;;23.77;12.40;;;;;;;;;;5011285;28;20486;-69
2023/01/24 13:35:25;;;;;;;20.75;11.90;;;;;;;;;;5013429;28;20097;-70
2023/01/24 13:37:55;;;;;;;19.80;11.60;;;;;;;;;;5013147;28;20038;-70
2023/01/24 13:40:30;;;;;;;20.17;11.93;;;;;;;;;;5012999;28;20041;-70
2023/01/24 13:42:57;;;;;;;18.23;10.82;;;;;;;;;;5013099;28;20030;-70
2023/01/24 13:45:23;;;;;;;18.80;11.70;;;;;;;;;;5012984;28;20030;-68
2023/01/24 13:47:49;;;;;;;17.20;10.57;;;;;;;;;;5013217;28;20053;-69
2023/01/24 13:50:19;;;;;;;19.67;11.82;;;;;;;;;;5012710;28;20038;-69
2023/01/24 13:52:47;;;;;;;20.10;11.15;;;;;;;;;;5012992;28;20026;-69
2023/01/24 13:55:18;;;;;;;22.35;11.10;;;;;;;;;;5012708;28;20124;-69
2023/01/24 13:57:44;;;;;;;20.02;11.40;;;;;;;;;;5013007;28;20037;-69
2023/01/24 14:00:14;;;;;;;19.10;11.27;;;;;;;;;;5012615;28;20029;-68
2023/01/24 14:02:48;;;;;;;17.73;10.52;;;;;;;;;;5012633;28;20026;-69
2023/01/24 14:05:29;;;;;;;20.45;11.43;;;;;;;;;;5012761;28;20377;-69
2023/01/24 14:08:00;;;;;;;20.48;11.25;;;;;;;;;;5012290;28;20033;-69
2023/01/24 14:10:42;;;;;;;17.17;10.52;;;;;;;;;;5012625;28;20061;-69
2023/01/24 14:13:45;;;;;;;20.08;11.25;;;;;;;;;;5012584;28;20061;-69
2023/01/24 14:16:24;;;;;;;19.23;10.98;;;;;;;;;;5012008;28;20037;-68
2023/01/24 14:19:03;;;;;;;17.90;9.90;;;;;;;;;;5010844;28;20041;-69
2023/01/24 14:21:47;;;;;;;17.43;10.63;;;;;;;;;;5012297;28;20026;-68
2023/01/24 14:24:24;;;;;;;15.80;9.85;;;;;;;;;;5012485;28;20608;-69
2023/01/24 14:26:52;;;;;;;16.65;10.40;;;;;;;;;;5012546;28;20018;-69
2023/01/24 14:29:20;;;;;;;16.02;10.23;;;;;;;;;;5012148;28;20030;-69
2023/01/24 14:31:54;;;;;;;17.98;10.93;;;;;;;;;;5012085;28;20101;-68
2023/01/24 14:34:54;;;;;;;14.18;9.38;;;;;;;;;;5012229;28;20029;-69
2023/01/24 14:37:22;;;;;;;18.00;9.95;;;;;;;;;;4992480;28;20042;-69
2023/01/24 14:39:47;;;;;;;17.23;10.20;;;;;;;;;;5010730;28;20038;-69
2023/01/24 14:42:15;;;;;;;14.82;9.75;;;;;;;;;;5012069;28;20033;-68
2023/01/24 14:44:54;;;;;;;16.92;9.88;;;;;;;;;;5012004;28;20821;-70
2023/01/24 14:47:22;;;;;;;16.30;9.73;;;;;;;;;;5011809;28;20066;-69
2023/01/24 14:49:53;;;;;;;14.98;9.73;;;;;;;;;;5011687;28;20048;-70
2023/01/24 14:52:21;;;;;;;14.10;9.15;;;;;;;;;;5011584;28;20038;-69
2023/01/24 14:54:55;;;;;;;13.35;8.93;;;;;;;;;;5010271;28;20140;-70
2023/01/24 14:57:26;;;;;;;15.13;9.70;;;;;;;;;;5011438;28;20026;-69
2023/01/24 15:00:07;;;;;;;16.95;9.43;;;;;;;;;;5011549;28;20034;-69
2023/01/24 15:02:34;;;;;;;15.27;9.27;;;;;;;;;;5011730;28;20109;-70
2023/01/24 15:05:00;;;;;;;15.23;9.52;;;;;;;;;;5008219;28;20049;-70
2023/01/24 15:07:26;;;;;;;16.73;9.90;;;;;;;;;;5010421;28;20478;-70
2023/01/24 15:09:53;;;;;;;18.83;9.50;;;;;;;;;;5011358;28;20397;-69
2023/01/24 15:12:18;;;;;;;15.65;9.52;;;;;;;;;;5010606;28;20482;-70
2023/01/24 15:14:50;;;;;;;16.83;9.65;;;;;;;;;;5010095;28;20050;-69
2023/01/24 15:17:22;;;;;;;13.35;9.25;;;;;;;;;;5011305;28;20026;-70
2023/01/24 15:19:56;;;;;;;14.65;8.63;;;;;;;;;;5011533;28;20041;-70
2023/01/24 15:22:23;;;;;;;18.35;9.90;;;;;;;;;;5010150;28;20366;-71
2023/01/24 15:24:54;;;;;;;20.13;9.38;;;;;;;;;;5009607;28;20022;-69
2023/01/24 15:27:40;;;;;;;18.95;8.52;;;;;;;;;;5010438;28;20026;-69
2023/01/24 15:30:21;;;;;;;15.35;9.70;;;;;;;;;;5011805;28;20044;-69
2023/01/24 15:32:59;;;;;;;14.15;9.40;;;;;;;;;;5010999;28;20036;-69